< Typhoon 200522 2005 Season Typhoon 200601 >
Typhoon 200523 (BOLAVEN)
General InformationTrack Information on Google MapsDetailed Wind InformationAccess Analytics MapList of All Images || NewsDisaster Info.WeblogTrackbackTyphoon FrontResourceGoogle EarthGE AnimationAtom FeedGeoJSON
Detalied Best Track (Time Zone = UTC)
Year Month Day Hour Lat. Long. Pressure (hPa) Wind (kt) Class Image Chart
2005 11 14 00 8.8 129.6 1004 0 2 Image Chart
2005 11 14 06 9.2 129.4 1002 0 2 Image Chart
2005 11 14 12 9.6 129.5 1002 0 2 Image Chart
2005 11 14 18 10.0 129.8 1000 0 2 Image Chart
2005 11 15 00 10.8 129.9 1000 0 2 Image Chart
2005 11 15 06 11.4 130.0 996 0 2 Image Chart
2005 11 15 12 12.3 130.0 998 0 2 Image Chart
2005 11 15 18 12.8 130.0 996 0 2 Image Chart
2005 11 16 00 13.0 129.9 996 0 2 Image Chart
2005 11 16 06 13.2 129.8 996 35 3 Image Chart
2005 11 16 12 13.3 129.7 996 40 3 Image Chart
2005 11 16 18 13.3 129.3 994 45 3 Image Chart
2005 11 17 00 13.2 129.0 990 50 4 Image Chart
2005 11 17 06 13.0 128.9 985 55 4 Image Chart
2005 11 17 12 13.1 128.7 985 55 4 Image Chart
2005 11 17 18 13.2 128.6 985 55 4 Image Chart
2005 11 18 00 13.3 128.5 985 55 4 Image Chart
2005 11 18 06 13.7 128.1 985 55 4 Image Chart
2005 11 18 12 14.2 127.2 985 55 4 Image Chart
2005 11 18 18 14.6 126.3 985 55 4 Image Chart
2005 11 19 00 15.1 125.2 985 55 4 Image Chart
2005 11 19 06 15.5 124.6 985 45 3 Image Chart
2005 11 19 12 16.1 123.9 990 40 3 Image Chart
2005 11 19 18 16.5 123.1 998 35 3 Image Chart
2005 11 20 00 17.1 122.3 1006 0 2 Image Chart
2005 11 20 06 17.9 121.1 1006 0 2 Image Chart
Japan Meteorological Agency Best Track Data | Correction Date : 2005-12-19
< Typhoon 200522 2005 Season Typhoon 200601 >

Help